Time;durP1;ratioP1;P1;durP2;ratioP2;P2;SDS_P1;SDS_P2;PMS_P1;PMS_P2;Temp;Humidity;BMP_temperature;BMP_pressure;BME280_temperature;BME280_humidity;BME280_pressure;Samples;Min_cycle;Max_cycle;Signal;HPM_P1;HPM_P2
2022/09/08 00:00:27;;;;;;;9.93;7.65;;;18.90;93.50;;;;;;4955637;28;20507;-73
2022/09/08 00:02:53;;;;;;;11.57;7.85;;;18.90;93.30;;;;;;4971731;28;20054;-72
2022/09/08 00:05:22;;;;;;;11.35;7.13;;;18.90;93.20;;;;;;4974691;28;20050;-72
2022/09/08 00:07:48;;;;;;;10.07;7.20;;;19.00;92.90;;;;;;4959119;28;20058;-72
2022/09/08 00:10:14;;;;;;;12.38;8.48;;;18.90;93.00;;;;;;4961022;28;20054;-72
2022/09/08 00:12:41;;;;;;;11.45;8.95;;;19.00;93.10;;;;;;4969677;28;20042;-72
2022/09/08 00:15:09;;;;;;;10.15;8.32;;;18.90;93.40;;;;;;4949889;28;20049;-72
2022/09/08 00:17:34;;;;;;;11.38;8.63;;;18.80;93.30;;;;;;4970715;28;20046;-72
2022/09/08 00:20:00;;;;;;;10.68;8.40;;;18.80;93.40;;;;;;4986729;28;20065;-72
2022/09/08 00:22:27;;;;;;;12.88;8.65;;;18.80;93.40;;;;;;4972955;28;20058;-72
2022/09/08 00:24:53;;;;;;;10.23;7.93;;;18.80;93.20;;;;;;4989020;28;20113;-72
2022/09/08 00:27:18;;;;;;;10.10;8.90;;;18.80;93.20;;;;;;4955678;28;20138;-72
2022/09/08 00:29:44;;;;;;;13.05;9.15;;;18.80;93.20;;;;;;4950529;28;20372;-72
2022/09/08 00:32:10;;;;;;;14.90;8.43;;;18.80;93.00;;;;;;4965197;28;20046;-73
2022/09/08 00:34:36;;;;;;;11.93;9.40;;;18.80;93.10;;;;;;4978273;28;20047;-73
2022/09/08 00:37:02;;;;;;;11.32;9.55;;;18.70;93.10;;;;;;4984672;28;20536;-73
2022/09/08 00:39:27;;;;;;;13.40;10.35;;;18.70;93.30;;;;;;4975364;28;20133;-72
2022/09/08 00:41:55;;;;;;;11.07;9.85;;;18.70;93.30;;;;;;4956348;28;20046;-73
2022/09/08 00:44:51;;;;;;;13.90;9.77;;;18.60;93.30;;;;;;4964323;28;20057;-73
2022/09/08 00:47:26;;;;;;;10.80;9.40;;;18.60;93.20;;;;;;4958918;28;20058;-73
2022/09/08 00:50:10;;;;;;;12.75;10.45;;;18.50;93.60;;;;;;4965406;28;20380;-73
2022/09/08 00:52:41;;;;;;;13.50;11.88;;;18.40;93.60;;;;;;4954893;28;20079;-72
2022/09/08 00:55:08;;;;;;;12.48;10.32;;;18.40;94.10;;;;;;4972434;28;20518;-73
2022/09/08 00:57:34;;;;;;;13.38;10.27;;;18.40;93.90;;;;;;4973450;28;20113;-72
2022/09/08 00:59:59;;;;;;;12.98;10.55;;;18.50;93.50;;;;;;4971528;28;20043;-73
2022/09/08 01:02:25;;;;;;;13.85;10.50;;;18.50;93.20;;;;;;4946572;28;20051;-72
2022/09/08 01:05:04;;;;;;;17.27;12.05;;;18.50;93.20;;;;;;4963863;28;20459;-73
2022/09/08 01:14:04;;;;;;;12.63;11.30;;;18.40;93.90;;;;;;4970507;28;20046;-72
2022/09/08 01:16:39;;;;;;;15.77;12.43;;;18.40;93.70;;;;;;4958458;28;20065;-73
2022/09/08 01:19:28;;;;;;;14.18;12.68;;;18.40;93.70;;;;;;4939850;28;20046;-72
2022/09/08 01:21:57;;;;;;;15.43;12.73;;;18.40;93.80;;;;;;4981325;28;20043;-73
2022/09/08 01:24:28;;;;;;;13.98;12.57;;;18.40;94.00;;;;;;4953907;28;20047;-72
2022/09/08 01:27:12;;;;;;;14.88;13.30;;;18.40;93.80;;;;;;4970525;28;20090;-72
2022/09/08 01:29:45;;;;;;;16.45;13.90;;;18.40;93.90;;;;;;4957589;28;20137;-72
2022/09/08 01:32:11;;;;;;;14.75;13.25;;;18.30;93.90;;;;;;4974881;28;20081;-72
2022/09/08 01:34:38;;;;;;;16.65;13.93;;;18.40;93.80;;;;;;4984396;28;20459;-72
2022/09/08 01:37:04;;;;;;;18.00;14.52;;;18.40;93.70;;;;;;4975925;28;20081;-72
2022/09/08 01:39:31;;;;;;;18.42;14.18;;;18.40;93.80;;;;;;4979225;28;20074;-72
2022/09/08 01:41:57;;;;;;;18.15;15.32;;;18.40;93.70;;;;;;4982910;28;20423;-72
2022/09/08 01:44:22;;;;;;;16.35;14.50;;;18.40;93.60;;;;;;4942846;28;20043;-72
2022/09/08 01:46:50;;;;;;;16.33;14.63;;;18.40;93.40;;;;;;4973866;28;20073;-73
2022/09/08 01:49:16;;;;;;;17.40;14.45;;;18.40;93.30;;;;;;4978793;28;20043;-72
2022/09/08 01:51:41;;;;;;;17.80;13.50;;;18.40;93.30;;;;;;4971056;28;20050;-72
2022/09/08 01:54:07;;;;;;;16.60;13.75;;;18.40;93.20;;;;;;4953805;28;20380;-73
2022/09/08 01:56:33;;;;;;;17.75;14.68;;;18.30;93.10;;;;;;4968861;28;20669;-72
2022/09/08 01:58:59;;;;;;;16.63;13.48;;;18.30;93.20;;;;;;4943919;28;20074;-72
2022/09/08 02:01:24;;;;;;;19.60;16.35;;;18.30;93.20;;;;;;4956260;28;20046;-72
2022/09/08 02:03:51;;;;;;;18.90;17.00;;;18.20;93.60;;;;;;4955048;28;20530;-72
2022/09/08 02:06:16;;;;;;;19.67;17.63;;;18.20;93.60;;;;;;4969574;28;20046;-72
2022/09/08 02:08:43;;;;;;;23.10;17.58;;;18.20;94.00;;;;;;4971537;28;20047;-72
2022/09/08 02:11:09;;;;;;;23.35;17.17;;;18.20;94.00;;;;;;4950298;28;20053;-72
2022/09/08 02:13:35;;;;;;;21.70;17.13;;;18.20;94.10;;;;;;4968897;28;20043;-73
2022/09/08 02:16:06;;;;;;;22.30;17.75;;;18.10;94.10;;;;;;4970269;28;20087;-72
2022/09/08 02:18:32;;;;;;;23.50;19.45;;;18.20;94.10;;;;;;4969999;28;20112;-72
2022/09/08 02:21:10;;;;;;;23.08;17.90;;;18.20;94.30;;;;;;4954194;28;20053;-74
2022/09/08 02:23:37;;;;;;;20.85;17.95;;;18.10;94.20;;;;;;4971936;28;20039;-73
2022/09/08 02:26:03;;;;;;;21.83;17.50;;;18.10;94.20;;;;;;4969406;28;20054;-73
2022/09/08 02:28:28;;;;;;;19.05;16.90;;;18.20;93.80;;;;;;4955788;28;20057;-73
2022/09/08 02:31:01;;;;;;;20.58;17.35;;;18.20;93.80;;;;;;4972866;28;20618;-72
2022/09/08 02:33:27;;;;;;;19.98;17.63;;;18.10;93.90;;;;;;4969496;28;20058;-72
2022/09/08 02:35:53;;;;;;;22.02;18.27;;;18.10;93.60;;;;;;4960186;28;20062;-72
2022/09/08 02:38:21;;;;;;;20.83;17.27;;;18.10;93.90;;;;;;4969895;28;20058;-72
2022/09/08 02:40:47;;;;;;;20.02;17.92;;;18.10;93.90;;;;;;4969703;28;20051;-72
2022/09/08 02:43:12;;;;;;;19.92;17.35;;;18.10;93.80;;;;;;4961712;28;20062;-72
2022/09/08 02:45:39;;;;;;;20.42;16.98;;;18.10;93.90;;;;;;4972902;28;20573;-73
2022/09/08 02:48:05;;;;;;;19.33;17.38;;;18.10;93.90;;;;;;4973823;28;20061;-73
2022/09/08 02:50:31;;;;;;;22.40;18.73;;;18.10;93.90;;;;;;4958760;28;20113;-73
2022/09/08 02:52:57;;;;;;;19.13;17.17;;;18.20;93.70;;;;;;4956850;28;20055;-73
2022/09/08 02:55:23;;;;;;;21.08;18.85;;;18.10;93.90;;;;;;4979573;28;20117;-73
2022/09/08 02:57:53;;;;;;;26.30;20.88;;;18.10;94.10;;;;;;4957481;28;20134;-73
2022/09/08 03:00:19;;;;;;;22.23;18.75;;;18.10;94.20;;;;;;4959366;28;20055;-73
2022/09/08 03:02:46;;;;;;;20.17;17.70;;;18.10;94.10;;;;;;4980961;28;20104;-73
2022/09/08 03:05:12;;;;;;;21.92;18.48;;;18.00;94.20;;;;;;4992387;28;20141;-73
2022/09/08 03:07:38;;;;;;;20.95;18.27;;;18.10;93.90;;;;;;4983154;28;20050;-72
2022/09/08 03:10:05;;;;;;;19.27;17.30;;;18.00;94.10;;;;;;4972796;28;20133;-73
2022/09/08 03:12:32;;;;;;;20.60;17.67;;;18.00;93.90;;;;;;4976206;28;20051;-73
2022/09/08 03:14:58;;;;;;;22.17;17.60;;;18.00;93.90;;;;;;4957262;28;20058;-73
2022/09/08 03:17:23;;;;;;;21.17;18.13;;;18.00;94.20;;;;;;4977324;28;20186;-73
2022/09/08 03:19:49;;;;;;;24.33;18.80;;;18.00;94.10;;;;;;4957817;28;20435;-73
2022/09/08 03:22:17;;;;;;;22.92;19.88;;;18.00;94.30;;;;;;4960254;28;20416;-73
2022/09/08 03:24:43;;;;;;;21.08;18.92;;;18.00;93.90;;;;;;4972666;28;20046;-72
2022/09/08 03:27:09;;;;;;;21.45;19.33;;;18.00;93.80;;;;;;4956838;28;20523;-73
2022/09/08 03:29:35;;;;;;;22.02;19.30;;;18.00;94.10;;;;;;4959289;28;20407;-72
2022/09/08 03:32:01;;;;;;;23.45;20.35;;;17.90;93.90;;;;;;4974501;28;20085;-72
2022/09/08 03:34:26;;;;;;;22.15;19.90;;;17.90;94.00;;;;;;4956183;28;20054;-72
2022/09/08 03:36:52;;;;;;;23.63;21.30;;;17.90;94.40;;;;;;4957222;28;20055;-72
2022/09/08 03:39:18;;;;;;;23.70;21.17;;;17.80;94.40;;;;;;4959605;28;20051;-73
2022/09/08 03:41:44;;;;;;;21.92;19.77;;;17.80;94.60;;;;;;4972537;28;20066;-73
2022/09/08 03:44:10;;;;;;;20.67;18.55;;;17.80;94.40;;;;;;4976204;28;20073;-72
2022/09/08 03:46:36;;;;;;;22.63;19.23;;;17.90;94.20;;;;;;4976051;28;20379;-72
2022/09/08 03:49:02;;;;;;;22.63;20.35;;;17.90;94.20;;;;;;4973438;28;20051;-72
2022/09/08 03:51:28;;;;;;;24.90;18.85;;;17.90;94.30;;;;;;4972236;28;20050;-72
2022/09/08 03:54:46;;;;;;;21.30;18.38;;;17.90;94.00;;;;;;4971716;28;20055;-73
2022/09/08 03:56:44;;;;;;;20.13;18.13;;;17.90;94.10;;;;;;4975343;28;20046;-73
2022/09/08 03:59:10;;;;;;;21.33;19.23;;;17.90;94.10;;;;;;4973042;28;20047;-73
2022/09/08 04:01:37;;;;;;;20.42;18.40;;;17.90;93.90;;;;;;4969318;28;20153;-73
2022/09/08 04:04:03;;;;;;;20.58;18.35;;;17.90;94.00;;;;;;4963831;28;20433;-73
2022/09/08 04:06:29;;;;;;;22.85;18.88;;;17.80;94.00;;;;;;4948181;28;20102;-73
2022/09/08 04:08:56;;;;;;;18.55;16.80;;;17.90;94.10;;;;;;4951446;28;20153;-73
2022/09/08 04:11:22;;;;;;;20.80;18.58;;;17.90;94.00;;;;;;4974311;28;20062;-73
2022/09/08 04:13:50;;;;;;;24.40;21.83;;;17.80;94.20;;;;;;4970496;28;20082;-73
2022/09/08 04:16:16;;;;;;;22.35;19.58;;;17.80;94.30;;;;;;4954636;28;20184;-73
2022/09/08 04:18:43;;;;;;;22.85;20.65;;;17.80;94.00;;;;;;4971987;28;20046;-72
2022/09/08 04:21:09;;;;;;;23.38;20.08;;;17.70;94.10;;;;;;4954918;28;20057;-72
2022/09/08 04:23:35;;;;;;;21.38;19.35;;;17.70;94.30;;;;;;4955637;28;20142;-72
2022/09/08 04:26:02;;;;;;;24.90;19.92;;;17.70;94.30;;;;;;4956225;28;20536;-73
2022/09/08 04:28:28;;;;;;;25.02;21.85;;;17.60;94.70;;;;;;4968148;28;20232;-72
2022/09/08 04:30:54;;;;;;;22.40;19.77;;;17.60;94.90;;;;;;4965474;28;20129;-73
2022/09/08 04:33:20;;;;;;;20.17;18.17;;;17.60;94.90;;;;;;4952403;28;20452;-73
2022/09/08 04:35:45;;;;;;;20.85;18.85;;;17.60;94.50;;;;;;4952985;28;20537;-72
2022/09/08 04:38:11;;;;;;;20.25;18.15;;;17.70;94.40;;;;;;4936549;29;20069;-73
2022/09/08 04:40:37;;;;;;;24.67;18.25;;;17.60;94.30;;;;;;4954212;28;20197;-72
2022/09/08 04:43:03;;;;;;;20.25;17.98;;;17.70;94.30;;;;;;4969878;28;20043;-71
2022/09/08 04:45:29;;;;;;;20.88;17.48;;;17.70;94.40;;;;;;4958823;28;21911;-72
2022/09/08 04:47:55;;;;;;;19.48;17.48;;;17.70;94.00;;;;;;4957503;28;20046;-72
2022/09/08 04:50:20;;;;;;;17.88;15.98;;;17.70;94.00;;;;;;4937960;28;20069;-72
2022/09/08 04:52:46;;;;;;;20.00;17.30;;;17.70;94.30;;;;;;4954423;28;20487;-72
2022/09/08 04:55:12;;;;;;;19.67;17.70;;;17.70;94.30;;;;;;4952374;28;20047;-72
2022/09/08 04:57:39;;;;;;;19.92;17.83;;;17.80;94.50;;;;;;4956696;28;20086;-72
2022/09/08 05:00:07;;;;;;;20.83;18.35;;;17.70;94.50;;;;;;4951615;28;20044;-72
2022/09/08 05:02:32;;;;;;;21.30;19.00;;;17.70;94.50;;;;;;4967715;28;20137;-72
2022/09/08 05:04:58;;;;;;;22.50;20.25;;;17.70;94.20;;;;;;4967206;28;20406;-72
2022/09/08 05:07:24;;;;;;;21.05;18.77;;;17.70;94.40;;;;;;4952284;28;20059;-72
2022/09/08 05:09:50;;;;;;;21.23;19.13;;;17.60;94.50;;;;;;4962973;28;20058;-72
2022/09/08 05:12:16;;;;;;;21.15;19.05;;;17.60;94.50;;;;;;4979767;28;20053;-72
2022/09/08 05:14:41;;;;;;;18.50;16.65;;;17.60;94.50;;;;;;4960605;28;20492;-72
2022/09/08 05:17:07;;;;;;;19.80;17.80;;;17.60;94.60;;;;;;4950920;28;20142;-72
2022/09/08 05:19:33;;;;;;;20.73;18.50;;;17.70;94.80;;;;;;4969521;28;20073;-69
2022/09/08 05:21:58;;;;;;;18.58;16.80;;;17.70;94.70;;;;;;4969331;28;20599;-72
2022/09/08 05:24:24;;;;;;;20.30;17.88;;;17.80;94.50;;;;;;4939272;28;20051;-69
2022/09/08 05:26:50;;;;;;;19.40;17.05;;;17.80;94.70;;;;;;4946797;28;20515;-69
2022/09/08 05:29:16;;;;;;;21.95;18.70;;;17.80;94.70;;;;;;4948748;28;20069;-69
2022/09/08 05:31:42;;;;;;;18.70;16.80;;;17.80;94.70;;;;;;4933690;28;20064;-72
2022/09/08 05:34:08;;;;;;;20.48;18.25;;;17.70;94.80;;;;;;4952181;28;20054;-71
2022/09/08 05:36:35;;;;;;;19.52;17.35;;;17.70;94.80;;;;;;4950918;28;20066;-70
2022/09/08 05:39:05;;;;;;;20.63;18.52;;;17.80;94.60;;;;;;4948665;28;20122;-70
2022/09/08 05:41:31;;;;;;;21.00;18.92;;;17.80;94.70;;;;;;4962324;28;21754;-70
2022/09/08 05:43:57;;;;;;;22.65;19.52;;;17.80;94.80;;;;;;4950874;28;20077;-70
2022/09/08 05:46:27;;;;;;;20.75;18.63;;;17.90;94.50;;;;;;4955992;28;20047;-70
2022/09/08 05:48:54;;;;;;;20.98;18.75;;;17.90;94.50;;;;;;4950650;28;20043;-71
2022/09/08 05:51:21;;;;;;;20.92;18.40;;;17.90;94.50;;;;;;4953287;28;20062;-70
2022/09/08 05:53:47;;;;;;;19.50;17.23;;;17.90;94.60;;;;;;4947953;28;20047;-70
2022/09/08 05:56:13;;;;;;;19.20;17.27;;;17.90;94.40;;;;;;4955033;28;20195;-70
2022/09/08 05:58:39;;;;;;;19.17;17.38;;;17.90;94.50;;;;;;4964735;28;20527;-72
2022/09/08 06:01:07;;;;;;;21.33;18.50;;;17.90;94.30;;;;;;4954362;28;20042;-71
2022/09/08 06:03:33;;;;;;;21.08;18.65;;;17.90;94.30;;;;;;4976057;28;20042;-72
2022/09/08 06:06:07;;;;;;;21.95;19.60;;;17.80;94.30;;;;;;4952699;28;20047;-73
2022/09/08 06:08:34;;;;;;;22.17;19.63;;;17.90;94.40;;;;;;4973159;28;20096;-70
2022/09/08 06:10:59;;;;;;;22.33;19.98;;;17.80;94.40;;;;;;4973266;28;20574;-72
2022/09/08 06:13:25;;;;;;;25.27;20.70;;;17.80;94.50;;;;;;4963992;28;20050;-72
2022/09/08 06:15:51;;;;;;;22.30;19.63;;;17.80;94.50;;;;;;4957748;28;20434;-72
2022/09/08 06:18:17;;;;;;;23.67;21.30;;;17.80;94.70;;;;;;4976852;28;20050;-70
2022/09/08 06:20:46;;;;;;;20.55;18.20;;;17.80;94.90;;;;;;4952479;28;20050;-71
2022/09/08 06:23:12;;;;;;;19.98;17.88;;;17.90;94.80;;;;;;4946460;28;20085;-71
2022/09/08 06:25:44;;;;;;;22.92;20.52;;;17.90;94.90;;;;;;4957455;28;20077;-70
2022/09/08 06:28:20;;;;;;;22.17;19.70;;;17.90;94.80;;;;;;4948772;28;20089;-70
2022/09/08 06:30:53;;;;;;;21.00;18.88;;;17.90;94.90;;;;;;4976187;28;20050;-71
2022/09/08 06:33:31;;;;;;;25.25;22.58;;;17.90;94.80;;;;;;4953441;28;20039;-71
2022/09/08 06:36:09;;;;;;;22.60;19.80;;;18.00;94.70;;;;;;4959058;28;20081;-71
2022/09/08 06:38:55;;;;;;;;;;;18.00;94.70;;;;;;4956197;28;20034;-71
2022/09/08 06:41:24;;;;;;;21.92;19.73;;;18.00;95.10;;;;;;4972252;28;19992;-71
2022/09/08 06:44:19;;;;;;;22.40;19.15;;;18.00;95.00;;;;;;4973604;28;20050;-71
2022/09/08 06:46:45;;;;;;;21.63;19.42;;;18.00;94.90;;;;;;4944397;28;20054;-71
2022/09/08 06:49:11;;;;;;;23.20;20.85;;;18.00;94.90;;;;;;4967182;28;20732;-71
2022/09/08 06:51:52;;;;;;;23.88;19.27;;;18.00;94.90;;;;;;4977590;28;20114;-71
2022/09/08 06:54:21;;;;;;;22.73;20.42;;;18.10;94.90;;;;;;4973906;28;20050;-71
2022/09/08 06:57:22;;;;;;;29.00;23.35;;;18.10;94.70;;;;;;4964483;28;20058;-71
2022/09/08 06:59:56;;;;;;;22.08;19.75;;;18.10;94.80;;;;;;4975189;28;20042;-71
2022/09/08 07:02:29;;;;;;;21.75;19.38;;;18.20;94.70;;;;;;4954143;28;20042;-72
2022/09/08 07:05:22;;;;;;;23.92;20.40;;;18.20;94.50;;;;;;4978706;28;20042;-72
2022/09/08 07:08:16;;;;;;;20.65;18.55;;;18.30;94.80;;;;;;4961045;28;20502;-72
2022/09/08 07:11:08;;;;;;;23.80;20.00;;;18.30;94.60;;;;;;4936672;28;20043;-72
2022/09/08 07:13:58;;;;;;;24.25;21.88;;;18.30;94.50;;;;;;4970487;28;20061;-72
2022/09/08 07:16:42;;;;;;;22.17;19.90;;;18.30;94.40;;;;;;4967074;28;20500;-72
2022/09/08 07:19:39;;;;;;;23.20;20.63;;;18.30;94.40;;;;;;4973765;28;20131;-73
2022/09/08 07:22:20;;;;;;;24.15;20.02;;;18.30;94.30;;;;;;4969743;28;20038;-72
2022/09/08 07:24:45;;;;;;;27.80;22.67;;;18.40;94.10;;;;;;4973092;28;20412;-72
2022/09/08 07:27:12;;;;;;;23.73;19.80;;;18.40;94.10;;;;;;4941582;28;20146;-72
2022/09/08 07:29:52;;;;;;;22.38;20.05;;;18.30;94.10;;;;;;4963358;28;20046;-72
2022/09/08 07:32:29;;;;;;;23.67;19.77;;;18.30;94.10;;;;;;4979111;28;20054;-72
2022/09/08 07:35:04;;;;;;;21.55;19.20;;;18.40;94.20;;;;;;4971771;28;20158;-72
2022/09/08 07:37:47;;;;;;;22.90;20.55;;;18.40;94.30;;;;;;4964041;28;20050;-72
2022/09/08 07:40:16;;;;;;;22.52;20.02;;;18.40;94.50;;;;;;4957318;28;20074;-72
2022/09/08 07:42:43;;;;;;;20.92;18.70;;;18.50;94.80;;;;;;4973395;28;20042;-72
2022/09/08 07:45:14;;;;;;;26.13;21.45;;;18.50;94.60;;;;;;4962783;28;20046;-72
2022/09/08 07:48:16;;;;;;;22.50;20.20;;;18.50;94.60;;;;;;4980104;28;20054;-72
2022/09/08 07:50:55;;;;;;;24.67;20.95;;;18.60;94.20;;;;;;4971855;28;20089;-72
2022/09/08 07:53:34;;;;;;;23.38;19.55;;;18.50;94.30;;;;;;4983288;28;20058;-72
2022/09/08 07:56:27;;;;;;;27.55;20.92;;;18.50;94.10;;;;;;4978873;28;20872;-72
2022/09/08 07:58:52;;;;;;;25.48;20.15;;;18.60;93.90;;;;;;4954720;28;20047;-72
2022/09/08 08:01:18;;;;;;;26.75;22.88;;;18.60;93.90;;;;;;4948901;28;20097;-72
2022/09/08 08:03:56;;;;;;;24.70;20.83;;;18.60;94.20;;;;;;4978433;28;20047;-72
2022/09/08 08:06:38;;;;;;;21.42;19.15;;;18.60;94.10;;;;;;4984759;28;20051;-73
2022/09/08 08:09:37;;;;;;;25.02;19.95;;;18.60;94.20;;;;;;4971727;28;20055;-73
2022/09/08 08:12:21;;;;;;;25.50;21.38;;;18.60;94.50;;;;;;4971339;28;20045;-73
2022/09/08 08:15:14;;;;;;;23.67;21.17;;;18.70;94.30;;;;;;4971466;28;20055;-73
2022/09/08 08:18:09;;;;;;;22.65;20.27;;;18.70;94.60;;;;;;4962953;28;20058;-73
2022/09/08 08:21:22;;;;;;;22.52;20.05;;;18.70;94.40;;;;;;4958663;28;20047;-73
2022/09/08 08:23:51;;;;;;;28.88;20.52;;;18.70;94.50;;;;;;4910494;29;20051;-73
2022/09/08 08:26:29;;;;;;;24.30;21.70;;;18.70;94.10;;;;;;4963904;28;20081;-72
2022/09/08 08:29:18;;;;;;;25.88;20.75;;;18.70;94.00;;;;;;4975762;28;20043;-73
2022/09/08 08:31:58;;;;;;;23.15;20.85;;;18.70;93.90;;;;;;4971610;28;20567;-73
2022/09/08 08:34:25;;;;;;;25.90;20.92;;;18.70;94.10;;;;;;4983690;28;20081;-73
2022/09/08 08:36:55;;;;;;;24.35;21.75;;;18.70;94.10;;;;;;4949210;28;20535;-73
2022/09/08 08:39:22;;;;;;;26.45;21.40;;;18.60;94.10;;;;;;4979893;28;20050;-73
2022/09/08 08:42:19;;;;;;;23.98;20.80;;;18.60;94.40;;;;;;4950608;28;20042;-73
2022/09/08 08:45:04;;;;;;;24.35;21.55;;;18.60;94.30;;;;;;4972866;28;20134;-73
2022/09/08 08:48:04;;;;;;;24.55;21.90;;;18.70;94.10;;;;;;4934229;28;20049;-73
2022/09/08 08:50:50;;;;;;;26.30;23.45;;;18.70;94.40;;;;;;4974120;28;20058;-73
2022/09/08 08:53:46;;;;;;;25.65;22.90;;;18.70;94.70;;;;;;4981711;28;20042;-73
2022/09/08 08:56:30;;;;;;;24.48;20.98;;;18.60;94.80;;;;;;4981885;28;20108;-73
2022/09/08 08:59:25;;;;;;;24.27;21.73;;;18.60;94.30;;;;;;4976557;28;20054;-73
2022/09/08 09:02:15;;;;;;;26.27;23.48;;;18.70;94.60;;;;;;4967281;28;20121;-72
2022/09/08 09:05:02;;;;;;;24.30;21.77;;;18.70;95.30;;;;;;4970979;28;20096;-72
2022/09/08 09:07:44;;;;;;;27.40;23.20;;;18.70;94.80;;;;;;4973169;28;20055;-72
2022/09/08 09:10:36;;;;;;;26.70;23.15;;;18.70;94.80;;;;;;4954616;28;20049;-73
2022/09/08 09:13:21;;;;;;;28.50;24.67;;;18.70;95.00;;;;;;4952389;28;20105;-72
2022/09/08 09:16:05;;;;;;;28.95;24.58;;;18.70;95.30;;;;;;4975925;28;20093;-73
2022/09/08 09:18:42;;;;;;;27.88;25.05;;;18.70;95.20;;;;;;4971852;28;20081;-73
2022/09/08 09:21:46;;;;;;;24.60;20.08;;;18.70;95.30;;;;;;4981735;28;20046;-72
2022/09/08 09:24:40;;;;;;;27.92;23.55;;;18.70;95.20;;;;;;4995713;28;20049;-72
2022/09/08 09:27:45;;;;;;;27.70;22.88;;;18.70;95.20;;;;;;4970420;28;20061;-73
2022/09/08 09:30:24;;;;;;;25.83;20.92;;;18.70;95.30;;;;;;4977506;28;20047;-73
2022/09/08 09:32:59;;;;;;;24.10;20.17;;;18.70;95.10;;;;;;4961197;28;20047;-72
2022/09/08 09:36:03;;;;;;;22.77;19.00;;;18.60;95.20;;;;;;4980657;28;20089;-72
2022/09/08 09:38:56;;;;;;;19.63;17.48;;;18.70;95.30;;;;;;4970298;28;20138;-73
2022/09/08 09:41:39;;;;;;;20.92;17.10;;;18.70;94.90;;;;;;4964732;28;20069;-73
2022/09/08 09:44:08;;;;;;;21.08;17.30;;;18.70;95.20;;;;;;4973623;28;20188;-72
2022/09/08 09:46:34;;;;;;;24.98;17.55;;;18.70;95.00;;;;;;4973278;28;20066;-72
2022/09/08 09:49:34;;;;;;;23.63;18.30;;;18.70;94.90;;;;;;4962166;28;20046;-75
2022/09/08 09:52:23;;;;;;;21.88;19.48;;;18.80;95.20;;;;;;4953712;28;20101;-73
2022/09/08 09:55:14;;;;;;;22.52;17.38;;;18.80;95.30;;;;;;4972205;28;20062;-72
2022/09/08 09:57:49;;;;;;;23.85;18.08;;;18.80;94.90;;;;;;4971077;28;20059;-72
2022/09/08 10:00:17;;;;;;;21.15;18.00;;;18.80;95.20;;;;;;4973809;28;20054;-73
2022/09/08 10:03:14;;;;;;;20.27;17.50;;;18.70;95.20;;;;;;4956021;28;20449;-73
2022/09/08 10:05:49;;;;;;;19.67;16.05;;;18.70;95.40;;;;;;4976799;28;20055;-73
2022/09/08 10:08:48;;;;;;;20.77;17.70;;;18.70;94.90;;;;;;4960285;28;20141;-73
2022/09/08 10:11:48;;;;;;;19.45;14.85;;;18.70;95.40;;;;;;4982592;28;20160;-73
2022/09/08 10:14:47;;;;;;;20.50;17.10;;;18.80;95.10;;;;;;4957217;28;20051;-73
2022/09/08 10:17:15;;;;;;;20.05;14.70;;;18.80;95.40;;;;;;4954052;28;20070;-73
2022/09/08 10:19:59;;;;;;;19.45;16.00;;;18.80;95.30;;;;;;4945943;28;20043;-74
2022/09/08 10:22:44;;;;;;;18.10;16.30;;;18.80;95.50;;;;;;4950851;28;20535;-74
2022/09/08 10:25:24;;;;;;;15.48;13.85;;;18.70;95.40;;;;;;4944793;28;20058;-73
2022/09/08 10:28:08;;;;;;;19.50;16.23;;;18.70;95.30;;;;;;4941109;28;20047;-74
2022/09/08 10:31:11;;;;;;;21.63;15.30;;;18.70;95.90;;;;;;4943378;28;20372;-74
2022/09/08 10:33:56;;;;;;;18.95;14.93;;;18.70;96.00;;;;;;4950042;28;20110;-73
2022/09/08 10:36:46;;;;;;;17.33;15.23;;;18.70;95.90;;;;;;4955224;28;20472;-74
2022/09/08 10:39:23;;;;;;;19.85;17.35;;;18.70;95.80;;;;;;4943715;28;20475;-73
2022/09/08 10:42:09;;;;;;;18.45;14.52;;;18.70;96.20;;;;;;4975218;28;20418;-73
2022/09/08 10:45:07;;;;;;;15.77;13.65;;;18.60;96.40;;;;;;4954003;28;20432;-72
2022/09/08 10:48:01;;;;;;;15.75;13.25;;;18.60;96.20;;;;;;4956935;28;20043;-72
2022/09/08 10:50:31;;;;;;;16.15;13.98;;;18.60;96.00;;;;;;4956261;28;20416;-72
2022/09/08 10:53:23;;;;;;;12.43;11.15;;;18.60;96.40;;;;;;4967862;28;20130;-71
2022/09/08 10:56:12;;;;;;;11.77;10.25;;;18.60;96.40;;;;;;4949612;28;20098;-72
2022/09/08 10:58:58;;;;;;;14.25;10.48;;;18.60;96.30;;;;;;4962895;28;20066;-72
2022/09/08 11:02:22;;;;;;;11.93;9.75;;;18.70;96.10;;;;;;4955339;28;20105;-73
2022/09/08 11:05:18;;;;;;;10.32;9.13;;;18.70;96.30;;;;;;4919235;29;20048;-72
2022/09/08 11:07:59;;;;;;;11.38;8.68;;;18.80;95.90;;;;;;4901160;29;20122;-72
2022/09/08 11:10:35;;;;;;;12.27;10.18;;;18.80;95.90;;;;;;4951919;28;20051;-72
2022/09/08 11:13:19;;;;;;;11.23;9.45;;;18.70;96.00;;;;;;4968301;28;20062;-72
2022/09/08 11:15:56;;;;;;;13.25;9.55;;;18.80;95.90;;;;;;4986463;28;20547;-72
2022/09/08 11:18:46;;;;;;;14.00;12.20;;;18.80;96.00;;;;;;4970984;28;20051;-72
2022/09/08 11:21:30;;;;;;;12.20;8.88;;;18.80;96.00;;;;;;4969304;28;20377;-73
2022/09/08 11:24:34;;;;;;;11.75;10.50;;;18.80;96.00;;;;;;4978475;28;20047;-72
2022/09/08 11:27:06;;;;;;;10.63;8.40;;;18.80;96.20;;;;;;4975258;28;20047;-72
2022/09/08 11:29:36;;;;;;;10.25;8.82;;;18.80;95.90;;;;;;4959091;28;20376;-73
2022/09/08 11:32:24;;;;;;;13.27;9.90;;;18.80;95.80;;;;;;4958809;28;20128;-73
2022/09/08 11:35:16;;;;;;;10.25;9.07;;;18.80;96.10;;;;;;4965855;28;20182;-73
2022/09/08 11:37:47;;;;;;;12.63;9.23;;;18.70;96.60;;;;;;4963326;28;21613;-73
2022/09/08 11:40:38;;;;;;;12.20;10.30;;;18.70;96.20;;;;;;4962465;28;20081;-74
2022/09/08 11:43:38;;;;;;;11.60;10.40;;;18.70;96.30;;;;;;4960808;28;20047;-73
2022/09/08 11:46:47;;;;;;;11.88;9.65;;;18.70;96.10;;;;;;4973790;28;20061;-73
2022/09/08 11:49:28;;;;;;;11.13;9.15;;;18.70;96.10;;;;;;4973201;28;20076;-73
2022/09/08 11:51:59;;;;;;;12.10;9.05;;;18.60;96.30;;;;;;4953908;28;20118;-73
2022/09/08 11:54:48;;;;;;;10.38;8.88;;;18.60;96.20;;;;;;4972127;28;20047;-73
2022/09/08 11:57:26;;;;;;;10.85;9.00;;;18.60;96.10;;;;;;4950981;28;20136;-74
2022/09/08 12:00:12;;;;;;;10.57;8.27;;;18.60;96.10;;;;;;4979292;28;20042;-74
2022/09/08 12:03:03;;;;;;;8.75;7.25;;;18.50;95.80;;;;;;4966429;28;20034;-74
2022/09/08 12:05:48;;;;;;;8.98;7.88;;;18.30;96.20;;;;;;4984846;28;20046;-73
2022/09/08 12:08:22;;;;;;;10.65;8.52;;;18.20;96.40;;;;;;4977244;28;20043;-74
2022/09/08 12:11:01;;;;;;;10.80;8.25;;;18.10;96.70;;;;;;4979961;28;20045;-72
2022/09/08 12:13:49;;;;;;;11.45;9.20;;;17.90;96.60;;;;;;4960450;28;20050;-72
2022/09/08 12:16:30;;;;;;;11.68;9.45;;;17.90;97.10;;;;;;4978083;28;20046;-72
2022/09/08 12:19:17;;;;;;;11.38;9.38;;;17.90;97.60;;;;;;4980196;28;20061;-72
2022/09/08 12:21:50;;;;;;;10.40;8.60;;;17.90;97.80;;;;;;4962118;28;20498;-72
2022/09/08 12:24:32;;;;;;;10.52;9.23;;;17.90;97.70;;;;;;4970981;28;20049;-71
2022/09/08 12:27:20;;;;;;;10.43;9.43;;;17.90;98.00;;;;;;4971159;28;20060;-71
2022/09/08 12:29:55;;;;;;;11.65;8.85;;;17.70;98.10;;;;;;4962242;28;20043;-71
2022/09/08 12:32:30;;;;;;;12.18;10.13;;;17.70;98.50;;;;;;4982214;28;20061;-71
2022/09/08 12:35:14;;;;;;;11.98;10.55;;;17.70;98.50;;;;;;4983354;28;20057;-71
2022/09/08 12:38:19;;;;;;;9.35;8.27;;;17.70;98.50;;;;;;4976837;28;20058;-71
2022/09/08 12:41:27;;;;;;;7.85;5.53;;;17.70;98.20;;;;;;4942092;28;20050;-72
2022/09/08 12:44:25;;;;;;;8.48;5.70;;;17.60;97.70;;;;;;4918945;29;20460;-71
2022/09/08 12:47:14;;;;;;;6.95;4.88;;;17.40;97.60;;;;;;4956844;28;20124;-71
2022/09/08 12:49:51;;;;;;;5.80;3.90;;;17.30;97.90;;;;;;4966752;28;20050;-71
2022/09/08 12:52:42;;;;;;;6.60;4.80;;;17.20;97.60;;;;;;4950017;28;20042;-71
2022/09/08 12:55:36;;;;;;;7.93;7.13;;;17.20;98.40;;;;;;4951231;28;20119;-71
2022/09/08 12:58:08;;;;;;;8.90;6.57;;;17.30;99.00;;;;;;4978075;28;20085;-71
2022/09/08 13:01:06;;;;;;;8.70;6.82;;;17.30;98.80;;;;;;4961959;28;20432;-70
2022/09/08 13:03:41;;;;;;;9.18;7.03;;;17.20;99.00;;;;;;4961554;28;20039;-71
2022/09/08 13:06:25;;;;;;;9.20;6.97;;;17.20;99.00;;;;;;4971197;28;20123;-71
2022/09/08 13:09:01;;;;;;;7.53;6.03;;;17.20;99.30;;;;;;4971897;28;20042;-71
2022/09/08 13:12:02;;;;;;;6.68;4.55;;;17.20;99.30;;;;;;4977348;28;20046;-72
2022/09/08 13:14:58;;;;;;;6.40;4.97;;;17.20;99.00;;;;;;4978081;28;20140;-71
2022/09/08 13:17:58;;;;;;;5.90;5.15;;;17.30;99.00;;;;;;4980650;28;20054;-71
2022/09/08 13:20:39;;;;;;;5.75;5.15;;;17.30;99.10;;;;;;4974360;28;20116;-71